sensor_id;sensor_type;location;lat;lon;timestamp;pressure;altitude;pressure_sealevel;temperature;humidity
74615;BME280;63121;51.458;-0.110;2023-06-19T00:00:41;100729.03;;;20.90;63.96
74615;BME280;63121;51.458;-0.110;2023-06-19T00:03:07;100717.53;;;20.77;63.74
74615;BME280;63121;51.458;-0.110;2023-06-19T00:05:33;100729.03;;;20.90;63.97
74615;BME280;63121;51.458;-0.110;2023-06-19T00:07:58;100734.06;;;21.11;63.31
74615;BME280;63121;51.458;-0.110;2023-06-19T00:10:24;100733.94;;;20.30;65.55
74615;BME280;63121;51.458;-0.110;2023-06-19T00:12:49;100732.38;;;20.61;64.49
74615;BME280;63121;51.458;-0.110;2023-06-19T00:15:15;100729.03;;;20.75;64.15
74615;BME280;63121;51.458;-0.110;2023-06-19T00:17:40;100730.88;;;20.22;66.35
74615;BME280;63121;51.458;-0.110;2023-06-19T00:20:07;100726.88;;;20.65;65.22
74615;BME280;63121;51.458;-0.110;2023-06-19T00:22:33;100728.75;;;20.63;65.08
74615;BME280;63121;51.458;-0.110;2023-06-19T00:24:58;100734.69;;;20.49;65.35
74615;BME280;63121;51.458;-0.110;2023-06-19T00:27:24;100732.34;;;20.94;64.11
74615;BME280;63121;51.458;-0.110;2023-06-19T00:29:51;100735.59;;;20.66;65.12
74615;BME280;63121;51.458;-0.110;2023-06-19T00:32:16;100740.50;;;20.72;64.94
74615;BME280;63121;51.458;-0.110;2023-06-19T00:34:42;100747.19;;;20.62;65.20
74615;BME280;63121;51.458;-0.110;2023-06-19T00:37:09;100754.03;;;20.47;65.54
74615;BME280;63121;51.458;-0.110;2023-06-19T00:39:35;100758.88;;;20.55;65.27
74615;BME280;63121;51.458;-0.110;2023-06-19T00:42:00;100755.16;;;20.60;65.41
74615;BME280;63121;51.458;-0.110;2023-06-19T00:44:26;100746.47;;;20.76;64.55
74615;BME280;63121;51.458;-0.110;2023-06-19T00:46:58;100747.09;;;21.28;63.55
74615;BME280;63121;51.458;-0.110;2023-06-19T00:49:25;100747.00;;;21.14;63.51
74615;BME280;63121;51.458;-0.110;2023-06-19T00:51:51;100749.66;;;21.46;62.58
74615;BME280;63121;51.458;-0.110;2023-06-19T00:54:18;100749.97;;;21.40;62.79
74615;BME280;63121;51.458;-0.110;2023-06-19T00:56:44;100756.91;;;21.41;62.76
74615;BME280;63121;51.458;-0.110;2023-06-19T00:59:17;100753.53;;;20.58;65.04
74615;BME280;63121;51.458;-0.110;2023-06-19T01:01:43;100753.59;;;20.89;64.47
74615;BME280;63121;51.458;-0.110;2023-06-19T01:04:09;100759.13;;;21.32;62.89
74615;BME280;63121;51.458;-0.110;2023-06-19T01:06:56;100758.75;;;20.91;63.66
74615;BME280;63121;51.458;-0.110;2023-06-19T01:09:29;100753.63;;;21.21;62.94
74615;BME280;63121;51.458;-0.110;2023-06-19T01:12:03;100753.28;;;20.96;64.01
74615;BME280;63121;51.458;-0.110;2023-06-19T01:14:36;100747.00;;;20.98;63.98
74615;BME280;63121;51.458;-0.110;2023-06-19T01:17:03;100758.22;;;20.84;64.19
74615;BME280;63121;51.458;-0.110;2023-06-19T01:19:30;100755.91;;;21.11;63.56
74615;BME280;63121;51.458;-0.110;2023-06-19T01:21:55;100755.22;;;20.92;63.97
74615;BME280;63121;51.458;-0.110;2023-06-19T01:24:21;100765.47;;;21.60;62.13
74615;BME280;63121;51.458;-0.110;2023-06-19T01:26:46;100753.78;;;21.18;63.39
74615;BME280;63121;51.458;-0.110;2023-06-19T01:29:13;100750.72;;;20.94;64.32
74615;BME280;63121;51.458;-0.110;2023-06-19T01:32:04;100757.50;;;21.14;63.73
74615;BME280;63121;51.458;-0.110;2023-06-19T01:34:33;100758.13;;;21.19;63.17
74615;BME280;63121;51.458;-0.110;2023-06-19T01:37:01;100757.22;;;20.87;64.59
74615;BME280;63121;51.458;-0.110;2023-06-19T01:39:27;100757.59;;;21.13;63.88
74615;BME280;63121;51.458;-0.110;2023-06-19T01:41:53;100758.16;;;21.02;63.83
74615;BME280;63121;51.458;-0.110;2023-06-19T01:44:20;100757.06;;;21.06;64.06
74615;BME280;63121;51.458;-0.110;2023-06-19T01:46:50;100765.81;;;21.38;63.27
74615;BME280;63121;51.458;-0.110;2023-06-19T01:49:16;100766.91;;;21.02;63.88
74615;BME280;63121;51.458;-0.110;2023-06-19T01:51:42;100764.53;;;20.98;64.48
74615;BME280;63121;51.458;-0.110;2023-06-19T01:54:08;100761.63;;;20.86;64.45
74615;BME280;63121;51.458;-0.110;2023-06-19T01:56:34;100765.25;;;20.84;64.22
74615;BME280;63121;51.458;-0.110;2023-06-19T01:58:59;100767.81;;;20.85;64.82
74615;BME280;63121;51.458;-0.110;2023-06-19T02:01:25;100761.59;;;20.70;65.12
74615;BME280;63121;51.458;-0.110;2023-06-19T02:03:50;100770.88;;;20.94;64.19
74615;BME280;63121;51.458;-0.110;2023-06-19T02:06:15;100776.56;;;20.68;64.55
74615;BME280;63121;51.458;-0.110;2023-06-19T02:08:41;100778.94;;;20.73;64.73
74615;BME280;63121;51.458;-0.110;2023-06-19T02:11:06;100776.66;;;20.67;64.85
74615;BME280;63121;51.458;-0.110;2023-06-19T02:13:32;100774.81;;;20.85;63.94
74615;BME280;63121;51.458;-0.110;2023-06-19T02:15:57;100775.63;;;21.03;63.84
74615;BME280;63121;51.458;-0.110;2023-06-19T02:18:22;100769.66;;;20.83;64.29
74615;BME280;63121;51.458;-0.110;2023-06-19T02:20:48;100773.06;;;20.68;64.30
74615;BME280;63121;51.458;-0.110;2023-06-19T02:23:13;100777.88;;;20.77;64.42
74615;BME280;63121;51.458;-0.110;2023-06-19T02:25:39;100776.13;;;20.43;64.97
74615;BME280;63121;51.458;-0.110;2023-06-19T02:28:04;100772.66;;;20.60;64.67
74615;BME280;63121;51.458;-0.110;2023-06-19T02:30:30;100786.81;;;20.56;64.81
74615;BME280;63121;51.458;-0.110;2023-06-19T02:32:55;100783.34;;;20.55;64.59
74615;BME280;63121;51.458;-0.110;2023-06-19T02:35:20;100785.38;;;20.33;65.28
74615;BME280;63121;51.458;-0.110;2023-06-19T02:37:46;100783.56;;;20.50;64.29
74615;BME280;63121;51.458;-0.110;2023-06-19T02:40:12;100796.00;;;20.47;64.85
74615;BME280;63121;51.458;-0.110;2023-06-19T02:42:38;100790.22;;;20.40;64.83
74615;BME280;63121;51.458;-0.110;2023-06-19T02:45:03;100786.28;;;20.49;64.65
74615;BME280;63121;51.458;-0.110;2023-06-19T02:47:30;100794.88;;;20.18;65.17
74615;BME280;63121;51.458;-0.110;2023-06-19T02:49:59;100790.53;;;20.34;64.73
74615;BME280;63121;51.458;-0.110;2023-06-19T02:52:25;100794.31;;;20.28;65.26
74615;BME280;63121;51.458;-0.110;2023-06-19T02:54:51;100795.00;;;20.15;65.22
74615;BME280;63121;51.458;-0.110;2023-06-19T02:57:16;100804.59;;;19.79;66.47
74615;BME280;63121;51.458;-0.110;2023-06-19T02:59:41;100801.09;;;20.15;65.02
74615;BME280;63121;51.458;-0.110;2023-06-19T03:02:07;100808.72;;;20.02;65.20
74615;BME280;63121;51.458;-0.110;2023-06-19T03:04:32;100816.63;;;19.83;65.86
74615;BME280;63121;51.458;-0.110;2023-06-19T03:06:57;100817.50;;;20.01;65.47
74615;BME280;63121;51.458;-0.110;2023-06-19T03:09:23;100819.50;;;19.96;65.25
74615;BME280;63121;51.458;-0.110;2023-06-19T03:11:48;100830.72;;;19.81;66.21
74615;BME280;63121;51.458;-0.110;2023-06-19T03:14:13;100841.47;;;19.75;66.29
74615;BME280;63121;51.458;-0.110;2023-06-19T03:16:39;100842.75;;;19.85;65.75
74615;BME280;63121;51.458;-0.110;2023-06-19T03:19:04;100851.22;;;19.90;65.87
74615;BME280;63121;51.458;-0.110;2023-06-19T03:21:29;100853.66;;;19.95;65.66
74615;BME280;63121;51.458;-0.110;2023-06-19T03:23:55;100859.31;;;19.85;65.40
74615;BME280;63121;51.458;-0.110;2023-06-19T03:26:21;100865.69;;;19.99;65.37
74615;BME280;63121;51.458;-0.110;2023-06-19T03:28:47;100859.22;;;20.06;65.17
74615;BME280;63121;51.458;-0.110;2023-06-19T03:31:13;100870.28;;;19.94;65.07
74615;BME280;63121;51.458;-0.110;2023-06-19T03:33:40;100873.06;;;19.90;65.38
74615;BME280;63121;51.458;-0.110;2023-06-19T03:36:05;100871.78;;;19.80;65.40
74615;BME280;63121;51.458;-0.110;2023-06-19T03:38:31;100868.59;;;19.93;65.40
74615;BME280;63121;51.458;-0.110;2023-06-19T03:40:56;100877.75;;;19.84;65.28
74615;BME280;63121;51.458;-0.110;2023-06-19T03:43:21;100876.34;;;19.94;65.04
74615;BME280;63121;51.458;-0.110;2023-06-19T03:45:47;100865.63;;;20.18;64.31
74615;BME280;63121;51.458;-0.110;2023-06-19T03:48:12;100874.38;;;19.99;64.29
74615;BME280;63121;51.458;-0.110;2023-06-19T03:50:38;100882.03;;;19.85;65.33
74615;BME280;63121;51.458;-0.110;2023-06-19T03:53:03;100876.84;;;20.02;64.48
74615;BME280;63121;51.458;-0.110;2023-06-19T03:55:29;100886.03;;;20.11;64.09
74615;BME280;63121;51.458;-0.110;2023-06-19T03:57:55;100885.81;;;20.16;63.87
74615;BME280;63121;51.458;-0.110;2023-06-19T04:00:20;100891.19;;;20.13;63.98
74615;BME280;63121;51.458;-0.110;2023-06-19T04:02:45;100889.34;;;20.15;63.93
74615;BME280;63121;51.458;-0.110;2023-06-19T04:05:14;100895.53;;;20.14;63.57
74615;BME280;63121;51.458;-0.110;2023-06-19T04:07:40;100895.66;;;20.10;63.97
74615;BME280;63121;51.458;-0.110;2023-06-19T04:10:06;100902.75;;;20.08;63.98
74615;BME280;63121;51.458;-0.110;2023-06-19T04:12:32;100897.81;;;20.02;63.98
74615;BME280;63121;51.458;-0.110;2023-06-19T04:14:57;100902.56;;;19.94;63.71
74615;BME280;63121;51.458;-0.110;2023-06-19T04:17:22;100909.72;;;20.09;63.46
74615;BME280;63121;51.458;-0.110;2023-06-19T04:19:48;100912.03;;;20.16;63.06
74615;BME280;63121;51.458;-0.110;2023-06-19T04:22:13;100917.34;;;20.14;63.72
74615;BME280;63121;51.458;-0.110;2023-06-19T04:24:39;100921.59;;;20.17;63.52
74615;BME280;63121;51.458;-0.110;2023-06-19T04:27:04;100924.56;;;20.09;63.74
74615;BME280;63121;51.458;-0.110;2023-06-19T04:29:29;100927.66;;;20.17;62.91
74615;BME280;63121;51.458;-0.110;2023-06-19T04:32:00;100926.47;;;20.24;62.75
74615;BME280;63121;51.458;-0.110;2023-06-19T04:34:28;100927.53;;;20.20;63.24
74615;BME280;63121;51.458;-0.110;2023-06-19T04:36:53;100929.94;;;20.25;63.37
74615;BME280;63121;51.458;-0.110;2023-06-19T04:39:18;100930.38;;;20.16;63.67
74615;BME280;63121;51.458;-0.110;2023-06-19T04:41:44;100930.78;;;20.25;63.15
74615;BME280;63121;51.458;-0.110;2023-06-19T04:44:10;100924.09;;;20.37;62.68
74615;BME280;63121;51.458;-0.110;2023-06-19T04:46:38;100930.00;;;20.23;63.29
74615;BME280;63121;51.458;-0.110;2023-06-19T04:49:05;100932.03;;;20.36;63.33
74615;BME280;63121;51.458;-0.110;2023-06-19T04:51:31;100939.16;;;20.15;63.60
74615;BME280;63121;51.458;-0.110;2023-06-19T04:54:00;100932.81;;;20.55;62.71
74615;BME280;63121;51.458;-0.110;2023-06-19T04:56:26;100931.22;;;20.52;62.55
74615;BME280;63121;51.458;-0.110;2023-06-19T04:58:51;100933.69;;;20.56;62.77
74615;BME280;63121;51.458;-0.110;2023-06-19T05:01:17;100937.53;;;20.48;63.20
74615;BME280;63121;51.458;-0.110;2023-06-19T05:03:44;100935.84;;;20.47;63.00
74615;BME280;63121;51.458;-0.110;2023-06-19T05:06:11;100927.84;;;20.68;62.38
74615;BME280;63121;51.458;-0.110;2023-06-19T05:08:37;100921.69;;;20.69;62.17
74615;BME280;63121;51.458;-0.110;2023-06-19T05:11:02;100925.63;;;20.78;62.30
74615;BME280;63121;51.458;-0.110;2023-06-19T05:13:27;100920.63;;;20.73;62.13
74615;BME280;63121;51.458;-0.110;2023-06-19T05:15:53;100923.69;;;20.81;62.00
74615;BME280;63121;51.458;-0.110;2023-06-19T05:18:18;100929.41;;;20.72;61.89
74615;BME280;63121;51.458;-0.110;2023-06-19T05:20:44;100933.44;;;20.79;62.07
74615;BME280;63121;51.458;-0.110;2023-06-19T05:23:10;100940.81;;;21.06;61.38
74615;BME280;63121;51.458;-0.110;2023-06-19T05:25:35;100943.41;;;21.06;61.68
74615;BME280;63121;51.458;-0.110;2023-06-19T05:28:01;100941.78;;;21.21;60.63
74615;BME280;63121;51.458;-0.110;2023-06-19T05:30:26;100956.03;;;20.64;62.65
74615;BME280;63121;51.458;-0.110;2023-06-19T05:32:51;100951.66;;;21.33;60.72
74615;BME280;63121;51.458;-0.110;2023-06-19T05:35:17;100957.19;;;21.62;60.54
74615;BME280;63121;51.458;-0.110;2023-06-19T05:37:43;100955.53;;;21.26;61.08
74615;BME280;63121;51.458;-0.110;2023-06-19T05:40:09;100965.31;;;21.57;60.45
74615;BME280;63121;51.458;-0.110;2023-06-19T05:42:35;100962.16;;;21.33;60.66
74615;BME280;63121;51.458;-0.110;2023-06-19T05:45:01;100958.38;;;21.39;61.33
74615;BME280;63121;51.458;-0.110;2023-06-19T05:47:27;100957.53;;;21.21;61.49
74615;BME280;63121;51.458;-0.110;2023-06-19T05:49:54;100962.97;;;21.18;61.84
74615;BME280;63121;51.458;-0.110;2023-06-19T05:52:20;100958.97;;;21.77;59.90
74615;BME280;63121;51.458;-0.110;2023-06-19T05:54:46;100960.94;;;21.89;59.48
74615;BME280;63121;51.458;-0.110;2023-06-19T05:57:11;100957.03;;;21.81;59.46
74615;BME280;63121;51.458;-0.110;2023-06-19T05:59:37;100950.19;;;22.26;58.37
74615;BME280;63121;51.458;-0.110;2023-06-19T06:02:03;100950.59;;;22.18;58.54
74615;BME280;63121;51.458;-0.110;2023-06-19T06:04:28;100948.06;;;22.17;59.11
74615;BME280;63121;51.458;-0.110;2023-06-19T06:06:56;100955.25;;;22.13;58.93
74615;BME280;63121;51.458;-0.110;2023-06-19T06:09:21;100958.31;;;22.21;58.84
74615;BME280;63121;51.458;-0.110;2023-06-19T06:11:47;100949.91;;;21.83;59.67
74615;BME280;63121;51.458;-0.110;2023-06-19T06:14:12;100955.44;;;22.10;59.00
74615;BME280;63121;51.458;-0.110;2023-06-19T06:16:37;100955.44;;;22.10;59.06
74615;BME280;63121;51.458;-0.110;2023-06-19T06:19:03;100943.66;;;22.33;58.55
74615;BME280;63121;51.458;-0.110;2023-06-19T06:21:28;100953.06;;;22.05;57.73
74615;BME280;63121;51.458;-0.110;2023-06-19T06:23:53;100950.75;;;22.15;58.30
74615;BME280;63121;51.458;-0.110;2023-06-19T06:26:19;100948.59;;;22.07;57.39
74615;BME280;63121;51.458;-0.110;2023-06-19T06:28:45;100952.75;;;22.27;57.31
74615;BME280;63121;51.458;-0.110;2023-06-19T06:31:10;100955.31;;;22.59;56.75
74615;BME280;63121;51.458;-0.110;2023-06-19T06:33:36;100955.09;;;22.48;56.40
74615;BME280;63121;51.458;-0.110;2023-06-19T06:36:01;100951.97;;;22.71;55.80
74615;BME280;63121;51.458;-0.110;2023-06-19T06:38:26;100947.97;;;22.80;55.44
74615;BME280;63121;51.458;-0.110;2023-06-19T06:40:52;100954.72;;;22.84;54.82
74615;BME280;63121;51.458;-0.110;2023-06-19T06:43:17;100952.84;;;23.02;54.60
74615;BME280;63121;51.458;-0.110;2023-06-19T06:45:42;100957.75;;;23.23;53.75
74615;BME280;63121;51.458;-0.110;2023-06-19T06:48:08;100959.22;;;23.12;53.95
74615;BME280;63121;51.458;-0.110;2023-06-19T06:50:33;100966.78;;;23.04;54.17
74615;BME280;63121;51.458;-0.110;2023-06-19T06:53:00;100964.78;;;22.78;54.75
74615;BME280;63121;51.458;-0.110;2023-06-19T06:55:26;100969.97;;;22.93;54.96
74615;BME280;63121;51.458;-0.110;2023-06-19T06:57:51;100976.22;;;22.77;55.03
74615;BME280;63121;51.458;-0.110;2023-06-19T07:00:16;100978.84;;;22.15;56.40
74615;BME280;63121;51.458;-0.110;2023-06-19T07:02:43;100981.66;;;22.43;55.99
74615;BME280;63121;51.458;-0.110;2023-06-19T07:05:10;100980.03;;;23.03;54.85
74615;BME280;63121;51.458;-0.110;2023-06-19T07:07:36;100986.53;;;23.11;54.02
74615;BME280;63121;51.458;-0.110;2023-06-19T07:10:01;100982.94;;;22.82;54.35
74615;BME280;63121;51.458;-0.110;2023-06-19T07:12:27;100990.38;;;23.20;53.95
74615;BME280;63121;51.458;-0.110;2023-06-19T07:14:55;100991.09;;;23.96;52.16
74615;BME280;63121;51.458;-0.110;2023-06-19T07:17:21;100991.25;;;23.35;53.06
74615;BME280;63121;51.458;-0.110;2023-06-19T07:19:47;100995.44;;;24.65;50.65
74615;BME280;63121;51.458;-0.110;2023-06-19T07:22:13;100990.38;;;24.21;51.31
74615;BME280;63121;51.458;-0.110;2023-06-19T07:24:40;100988.50;;;24.23;51.32
74615;BME280;63121;51.458;-0.110;2023-06-19T07:27:05;100981.88;;;24.57;50.50
74615;BME280;63121;51.458;-0.110;2023-06-19T07:29:31;100996.38;;;24.37;50.20
74615;BME280;63121;51.458;-0.110;2023-06-19T07:31:57;100992.97;;;25.15;48.97
74615;BME280;63121;51.458;-0.110;2023-06-19T07:34:23;100980.94;;;25.11;49.31
74615;BME280;63121;51.458;-0.110;2023-06-19T07:36:48;100986.28;;;25.37;48.19
74615;BME280;63121;51.458;-0.110;2023-06-19T07:39:14;100992.84;;;24.91;49.60
74615;BME280;63121;51.458;-0.110;2023-06-19T07:41:39;100994.72;;;24.76;49.21
74615;BME280;63121;51.458;-0.110;2023-06-19T07:44:05;100995.91;;;24.98;49.84
74615;BME280;63121;51.458;-0.110;2023-06-19T07:46:30;100990.41;;;25.41;48.34
74615;BME280;63121;51.458;-0.110;2023-06-19T07:48:56;100993.16;;;24.32;49.79
74615;BME280;63121;51.458;-0.110;2023-06-19T07:51:21;101001.06;;;23.90;51.01
74615;BME280;63121;51.458;-0.110;2023-06-19T07:53:47;100991.75;;;23.85;51.28
74615;BME280;63121;51.458;-0.110;2023-06-19T07:56:12;101000.94;;;24.75;49.22
74615;BME280;63121;51.458;-0.110;2023-06-19T07:58:37;101000.56;;;24.94;48.75
74615;BME280;63121;51.458;-0.110;2023-06-19T08:01:03;100998.16;;;25.04;48.11
74615;BME280;63121;51.458;-0.110;2023-06-19T08:03:28;100997.41;;;25.02;48.54
74615;BME280;63121;51.458;-0.110;2023-06-19T08:05:53;101002.31;;;25.33;47.31
74615;BME280;63121;51.458;-0.110;2023-06-19T08:08:19;101008.03;;;25.27;47.66
74615;BME280;63121;51.458;-0.110;2023-06-19T08:10:44;101009.88;;;25.00;48.01
74615;BME280;63121;51.458;-0.110;2023-06-19T08:13:09;100995.63;;;25.15;47.27
74615;BME280;63121;51.458;-0.110;2023-06-19T08:15:36;101000.63;;;25.71;46.71
74615;BME280;63121;51.458;-0.110;2023-06-19T08:18:01;100995.63;;;25.15;47.56
74615;BME280;63121;51.458;-0.110;2023-06-19T08:20:27;100998.31;;;24.48;49.60
74615;BME280;63121;51.458;-0.110;2023-06-19T08:22:53;100999.84;;;25.05;48.57
74615;BME280;63121;51.458;-0.110;2023-06-19T08:25:19;100997.88;;;25.21;48.03
74615;BME280;63121;51.458;-0.110;2023-06-19T08:27:44;100987.16;;;25.10;46.95
74615;BME280;63121;51.458;-0.110;2023-06-19T08:30:10;100983.94;;;25.32;46.89
74615;BME280;63121;51.458;-0.110;2023-06-19T08:32:36;100985.59;;;25.07;47.27
74615;BME280;63121;51.458;-0.110;2023-06-19T08:35:01;100990.50;;;25.52;46.61
74615;BME280;63121;51.458;-0.110;2023-06-19T08:37:28;100999.78;;;25.58;46.27
74615;BME280;63121;51.458;-0.110;2023-06-19T08:39:53;100997.13;;;25.96;44.20
74615;BME280;63121;51.458;-0.110;2023-06-19T08:42:21;100996.63;;;26.15;44.07
74615;BME280;63121;51.458;-0.110;2023-06-19T08:44:49;101001.13;;;26.50;43.59
74615;BME280;63121;51.458;-0.110;2023-06-19T08:47:14;101004.09;;;26.82;42.93
74615;BME280;63121;51.458;-0.110;2023-06-19T08:49:40;101004.75;;;27.66;41.09
74615;BME280;63121;51.458;-0.110;2023-06-19T08:52:06;100995.91;;;26.85;42.26
74615;BME280;63121;51.458;-0.110;2023-06-19T08:54:32;100993.50;;;26.82;42.40
74615;BME280;63121;51.458;-0.110;2023-06-19T08:57:01;100997.25;;;27.26;42.08
74615;BME280;63121;51.458;-0.110;2023-06-19T08:59:27;101000.63;;;27.28;41.95
74615;BME280;63121;51.458;-0.110;2023-06-19T09:01:54;101009.03;;;27.22;41.58
74615;BME280;63121;51.458;-0.110;2023-06-19T09:04:24;101012.22;;;27.72;40.96
74615;BME280;63121;51.458;-0.110;2023-06-19T09:06:50;101002.19;;;27.42;40.95
74615;BME280;63121;51.458;-0.110;2023-06-19T09:09:16;101004.75;;;27.89;40.47
74615;BME280;63121;51.458;-0.110;2023-06-19T09:11:42;101016.66;;;28.06;39.14
74615;BME280;63121;51.458;-0.110;2023-06-19T09:14:10;101004.97;;;27.63;40.37
74615;BME280;63121;51.458;-0.110;2023-06-19T09:16:37;101007.72;;;27.84;40.47
74615;BME280;63121;51.458;-0.110;2023-06-19T09:19:03;101012.28;;;28.16;39.44
74615;BME280;63121;51.458;-0.110;2023-06-19T09:21:28;101016.53;;;28.07;40.01
74615;BME280;63121;51.458;-0.110;2023-06-19T09:23:54;101017.31;;;27.17;40.92
74615;BME280;63121;51.458;-0.110;2023-06-19T09:26:19;101001.19;;;26.85;41.23
74615;BME280;63121;51.458;-0.110;2023-06-19T09:28:45;101004.94;;;27.29;40.75
74615;BME280;63121;51.458;-0.110;2023-06-19T09:31:11;101005.59;;;27.89;39.72
74615;BME280;63121;51.458;-0.110;2023-06-19T09:33:39;101005.59;;;27.67;39.96
74615;BME280;63121;51.458;-0.110;2023-06-19T09:36:05;101007.84;;;27.49;40.31
74615;BME280;63121;51.458;-0.110;2023-06-19T09:38:33;101005.34;;;27.92;39.62
74615;BME280;63121;51.458;-0.110;2023-06-19T09:41:03;101013.78;;;28.09;38.87
74615;BME280;63121;51.458;-0.110;2023-06-19T09:43:36;101012.94;;;27.97;39.14
74615;BME280;63121;51.458;-0.110;2023-06-19T09:46:03;101020.91;;;28.08;38.53
74615;BME280;63121;51.458;-0.110;2023-06-19T09:48:30;101019.06;;;28.20;38.25
74615;BME280;63121;51.458;-0.110;2023-06-19T09:51:19;101017.38;;;27.74;39.07
74615;BME280;63121;51.458;-0.110;2023-06-19T09:53:46;101004.97;;;27.74;38.34
74615;BME280;63121;51.458;-0.110;2023-06-19T09:56:13;101021.66;;;28.31;37.74
74615;BME280;63121;51.458;-0.110;2023-06-19T09:58:40;101018.09;;;27.76;37.98
74615;BME280;63121;51.458;-0.110;2023-06-19T10:01:07;101014.00;;;27.27;39.19
74615;BME280;63121;51.458;-0.110;2023-06-19T10:03:33;101012.47;;;27.58;39.45
74615;BME280;63121;51.458;-0.110;2023-06-19T10:06:00;101023.47;;;28.31;38.22
74615;BME280;63121;51.458;-0.110;2023-06-19T10:08:30;101006.91;;;28.06;38.17
74615;BME280;63121;51.458;-0.110;2023-06-19T10:10:56;101014.84;;;27.84;39.11
74615;BME280;63121;51.458;-0.110;2023-06-19T10:13:34;101016.06;;;28.13;38.36
74615;BME280;63121;51.458;-0.110;2023-06-19T10:16:00;101019.78;;;28.22;38.36
74615;BME280;63121;51.458;-0.110;2023-06-19T10:18:26;101022.31;;;28.24;37.90
74615;BME280;63121;51.458;-0.110;2023-06-19T10:20:54;101014.88;;;27.72;39.44
74615;BME280;63121;51.458;-0.110;2023-06-19T10:23:21;101009.19;;;27.66;38.42
74615;BME280;63121;51.458;-0.110;2023-06-19T10:25:55;101022.31;;;26.98;40.19
74615;BME280;63121;51.458;-0.110;2023-06-19T10:28:21;101014.59;;;28.09;38.97
74615;BME280;63121;51.458;-0.110;2023-06-19T10:31:06;101009.97;;;28.98;37.61
74615;BME280;63121;51.458;-0.110;2023-06-19T10:33:36;101017.66;;;28.60;36.84
74615;BME280;63121;51.458;-0.110;2023-06-19T10:36:23;101012.59;;;27.90;38.31
74615;BME280;63121;51.458;-0.110;2023-06-19T10:38:50;101003.19;;;28.41;38.26
74615;BME280;63121;51.458;-0.110;2023-06-19T10:41:25;101008.72;;;28.82;37.07
74615;BME280;63121;51.458;-0.110;2023-06-19T10:43:56;100999.47;;;28.76;36.32
74615;BME280;63121;51.458;-0.110;2023-06-19T10:46:23;101001.53;;;29.35;36.40
74615;BME280;63121;51.458;-0.110;2023-06-19T10:48:50;101006.66;;;29.48;35.89
74615;BME280;63121;51.458;-0.110;2023-06-19T10:51:19;101006.59;;;28.96;37.33
74615;BME280;63121;51.458;-0.110;2023-06-19T10:53:45;100995.06;;;28.86;37.14
74615;BME280;63121;51.458;-0.110;2023-06-19T10:56:10;100994.16;;;29.39;36.43
74615;BME280;63121;51.458;-0.110;2023-06-19T10:58:36;100995.03;;;29.07;36.30
74615;BME280;63121;51.458;-0.110;2023-06-19T11:01:01;100991.03;;;28.71;37.11
74615;BME280;63121;51.458;-0.110;2023-06-19T11:03:26;100996.03;;;29.06;36.63
74615;BME280;63121;51.458;-0.110;2023-06-19T11:05:52;101003.91;;;28.43;36.69
74615;BME280;63121;51.458;-0.110;2023-06-19T11:08:26;100994.16;;;28.76;36.59
74615;BME280;63121;51.458;-0.110;2023-06-19T11:10:52;100997.38;;;29.01;36.87
74615;BME280;63121;51.458;-0.110;2023-06-19T11:13:19;101001.66;;;28.92;36.62
74615;BME280;63121;51.458;-0.110;2023-06-19T11:15:45;101006.44;;;28.45;36.98
74615;BME280;63121;51.458;-0.110;2023-06-19T11:18:11;101008.25;;;28.44;37.65
74615;BME280;63121;51.458;-0.110;2023-06-19T11:21:02;101006.69;;;27.98;37.88
74615;BME280;63121;51.458;-0.110;2023-06-19T11:23:30;101004.75;;;27.89;37.58
74615;BME280;63121;51.458;-0.110;2023-06-19T11:26:04;100999.84;;;28.28;36.93
74615;BME280;63121;51.458;-0.110;2023-06-19T11:28:30;100995.09;;;27.99;37.58
74615;BME280;63121;51.458;-0.110;2023-06-19T11:31:00;100999.66;;;28.08;37.63
74615;BME280;63121;51.458;-0.110;2023-06-19T11:33:29;100997.41;;;28.36;36.94
74615;BME280;63121;51.458;-0.110;2023-06-19T11:35:59;100995.44;;;28.06;36.89
74615;BME280;63121;51.458;-0.110;2023-06-19T11:38:26;100996.66;;;28.45;36.91
74615;BME280;63121;51.458;-0.110;2023-06-19T11:40:52;101007.63;;;28.08;37.08
74615;BME280;63121;51.458;-0.110;2023-06-19T11:45:50;100994.00;;;27.68;37.39
74615;BME280;63121;51.458;-0.110;2023-06-19T11:48:24;101002.94;;;28.01;36.36
74615;BME280;63121;51.458;-0.110;2023-06-19T11:50:50;101001.50;;;28.40;35.97
74615;BME280;63121;51.458;-0.110;2023-06-19T11:53:17;100998.25;;;28.80;35.88
74615;BME280;63121;51.458;-0.110;2023-06-19T11:55:42;100994.06;;;29.08;35.48
74615;BME280;63121;51.458;-0.110;2023-06-19T11:58:10;100998.25;;;28.80;36.41
74615;BME280;63121;51.458;-0.110;2023-06-19T12:00:38;100989.56;;;28.78;36.03
74615;BME280;63121;51.458;-0.110;2023-06-19T12:03:04;100987.19;;;28.64;35.76
74615;BME280;63121;51.458;-0.110;2023-06-19T12:05:29;100984.44;;;28.54;36.24
74615;BME280;63121;51.458;-0.110;2023-06-19T12:07:55;100987.56;;;28.15;36.49
74615;BME280;63121;51.458;-0.110;2023-06-19T12:10:21;100998.69;;;28.85;35.53
74615;BME280;63121;51.458;-0.110;2023-06-19T12:12:46;100986.88;;;28.46;35.89
74615;BME280;63121;51.458;-0.110;2023-06-19T12:15:11;100993.34;;;28.21;36.47
74615;BME280;63121;51.458;-0.110;2023-06-19T12:17:37;100991.59;;;28.53;35.94
74615;BME280;63121;51.458;-0.110;2023-06-19T12:20:03;100991.94;;;28.05;37.35
74615;BME280;63121;51.458;-0.110;2023-06-19T12:22:34;100986.31;;;28.74;36.07
74615;BME280;63121;51.458;-0.110;2023-06-19T12:25:00;100985.41;;;28.09;36.90
74615;BME280;63121;51.458;-0.110;2023-06-19T12:27:26;100984.09;;;28.15;37.10
74615;BME280;63121;51.458;-0.110;2023-06-19T12:29:51;100982.84;;;28.84;35.88
74615;BME280;63121;51.458;-0.110;2023-06-19T12:32:17;100985.66;;;28.61;35.98
74615;BME280;63121;51.458;-0.110;2023-06-19T12:34:42;100970.56;;;28.50;36.02
74615;BME280;63121;51.458;-0.110;2023-06-19T12:37:15;100974.66;;;28.87;35.83
74615;BME280;63121;51.458;-0.110;2023-06-19T12:39:43;100974.50;;;28.67;35.68